Aviation Digital Data Service (ADDS)

Output produced by METARs form (0129 UTC 24 August 2016)
found at http://aviationweather.gov/adds/metars/
 
KDAG 240050Z AUTO 30010KT 10SM CLR 38/03 A2991 RMK AO2 SLP098 T03780033
KDAG 232320Z 2400/2424 25012G18KT P6SM FEW120 
     FM241000 28011KT P6SM SKC 
     FM241700 31007KT P6SM SKC
       
KEDW 240058Z 28017KT 25SM FEW300 35/05 A2996 RMK AO2A SLP121 T03450049
TAF KEDW 2318/2424 23012KT 9999 SKC QNH2999INS 
     BECMG 2322/2323 24015G25KT 9999 SKC 520009 QNH2996INS 
     TEMPO 2323/2402 25020G30KT 
     BECMG 2403/2404 VRB06KT 9999 SKC QNH2999INS 
     BECMG 2417/2418 24012KT 9999 SKC QNH2997INS 
     BECMG 2420/2421 24015G25KT 9999 SKC 520009 QNH2990INS TX36/2322Z TN19/2412Z
       
KVCV 240115Z AUTO 29012G20KT 10SM CLR 34/04 A3002 RMK AO2
KONT 240053Z 25012KT 10SM CLR 31/07 A2998 RMK AO2 SLP134 T03060072
KONT 232320Z 2400/2506 26010KT P6SM FEW150 
     FM240400 VRB05KT P6SM SKC 
     FM242100 25011KT P6SM SKC 
     FM250500 VRB05KT P6SM SKC
       
KSNA 240053Z 25004KT 10SM FEW015 24/17 A2998 RMK AO2 SLP150 T02390167
KSNA 232320Z 2400/2424 22009KT P6SM SKC 
     FM240200 VRB04KT P6SM FEW010 
     FM241200 VRB03KT P6SM BKN008 
     FM241600 VRB04KT P6SM FEW010 
     FM241900 22010KT P6SM SKC
       
KSAN 240051Z 30005KT 10SM FEW013 23/17 A3000 RMK AO2 SLP159 T02330167
KSAN 232320Z 2400/2506 29006KT P6SM FEW013 
     FM240900 VRB03KT P6SM OVC010 
     FM241100 VRB03KT 6SM BR HZ OVC007 
     FM241730 27008KT P6SM SCT010 
     FM250100 VRB05KT P6SM SCT010
       
KNID 240056Z 26013KT 10SM FEW000 FEW100 37/04 A2992 RMK AO2 SLP111 FU FEW000 MTNS OBSCRD NW T03670044 $
TAF KNID 2323/2423 VRB06KT 9999 FEW100 QNH2991INS 
     TEMPO 2400/2402 19008G16KT 150V220 
     BECMG 2402/2403 21007KT 9999 SKC QNH2994INS 
     BECMG 2412/2414 VRB05KT 9999 FEW000 QNH2992INS FU FEW000 
     BECMG 2421/2423 20008G16KT 9999 FEW000 FEW100 QNH2990INS FU FEW000 T17/2413Z T39/2422Z LAST NO AMDS AFT 2405 NEXT 2415
       
KNXP 240056Z 25004KT 10SM FEW110 36/03 A3000 RMK AO2 SLP118 T03610028
TAF KNXP 2321/2421 VRB05KT 9999 SKC QNH3000INS 
     TEMPO 2400/2406 22010KT T35/2323Z T25/2412Z
       
KPSP 240053Z 34011KT 10SM CLR 40/07 A2984 RMK AO2 SLP100 T04000072 $
KPSP 232320Z 2400/2424 VRB06KT P6SM SKC 
     FM240100 33011KT P6SM SKC 
     FM240600 VRB05KT P6SM SKC
       
KLAX 240053Z 26012KT 10SM CLR 22/16 A2999 RMK AO2 SLP153 T02170161
KLAX 232332Z 2400/2506 26010KT P6SM SCT250 
     FM240400 25007KT P6SM FEW008 
     FM241000 VRB03KT 5SM BR BKN008 
     FM241500 VRB03KT 5SM HZ SCT012 
     FM241900 26012KT 6SM HZ SKC 
     FM250000 26012KT P6SM SCT250
       
KCNO 240053Z 27013KT 10SM CLR 31/08 A2998 RMK AO2 SLP147 T03060083
KSMO 240051Z 23006KT 10SM CLR 23/15 A2999 RMK AO2 SLP152 T02330150
KLGB 240053Z AUTO 29008KT 10SM CLR 26/17 A2997 RMK AO2 SLP148 T02610172 TSNO
KLGB 232332Z 2400/2424 18008KT P6SM SKC 
     FM240100 29008KT P6SM SKC 
     FM240500 VRB03KT P6SM SCT015 
     FM241000 VRB03KT P6SM BKN012 
     FM241500 14002KT 5SM HZ SCT015
       
KVNY 240051Z 12009KT 10SM CLR 29/08 A2997 RMK AO2 SLP139 T02940083
KVNY 232332Z 2400/2424 13010KT P6SM SKC 
     FM240400 12005KT P6SM SKC 
     FM240800 VRB03KT P6SM SKC
       
KBUR 240053Z 17008KT 10SM CLR 28/12 A2998 RMK AO2 SLP139 T02780117
KBUR 232332Z 2400/2424 20010KT P6SM SKC 
     FM240300 14006KT P6SM SKC 
     FM240900 VRB03KT P6SM SKC 
     FM241600 13005KT 6SM HZ SKC
       
KBFL 240054Z 34010KT 10SM CLR 36/07 A2994 RMK AO2 SLP131 T03560067
KBFL 232320Z 2400/2424 31010KT P6SM SKC 
     FM240300 VRB04KT P6SM SKC 
     FM242100 31010KT P6SM SKC
       
KPMD 240053Z AUTO 27017KT 10SM CLR 32/09 A3003 RMK AO2 SLP138 T03170089
KPMD 232332Z 2400/2424 23016G28KT P6SM SCT120 
     FM240300 24013KT P6SM SKC 
     FM240600 26010KT P6SM SKC 
     FM241300 VRB05KT P6SM SKC
       
KOXR 240051Z 27010KT 10SM BKN075 19/16 A2999 RMK AO2 SLP155 T01940156 $
KOXR 232332Z 2400/2424 27012KT P6SM SKC 
     FM240400 VRB03KT P6SM SKC 
     FM241000 VRB03KT 5SM BR SCT008 
     FM241200 VRB03KT 4SM BR BKN006 
     FM241600 29003KT 6SM HZ SCT008
       
KWJF 240056Z 25023G28KT 10SM FEW110 33/06 A3001 RMK AO2 PK WND 25030/0051 SLP142 T03280056
KWJF 232332Z 2400/2424 23020G25KT P6SM SKC 
     FM240400 24014KT P6SM SKC 
     FM240600 25012KT P6SM SKC 
     FM241200 VRB03KT P6SM SKC
       
KCMA 240055Z 29006KT 10SM CLR 22/16 A2999 RMK AO2 SLP163 T02170156
KFAT 240053Z 31011KT 10SM FEW110 36/07 A2994 RMK AO2 SLP134 FU HZ ALQDS DSNT MTNS OBSCD CU DSNT N-NE-E T03560072
KFAT 232320Z 2400/2424 32009KT P6SM SKC 
     FM240900 VRB04KT P6SM SKC
       
KEED 240056Z AUTO 11007KT 10SM BKN110 37/11 A2987 RMK AO2 SLP080 T03720111
KEED 232320Z 2400/2424 VRB05KT P6SM FEW140 
     FM240400 24007KT P6SM SCT140 
     FM241800 17007KT P6SM SKC
       
KLSV 240058Z AUTO 07005KT 10SM CLR 32/15 A2992 RMK AO2 SLP110 T03210145 $
TAF AMD KLSV 240016Z 2400/2505 05009KT 9999 FEW200 QNH2990INS 
     BECMG 2400/2401 04010G15KT 9999 VCTS SCT100CB BKN200 QNH2996INS 
     TEMPO 2402/2406 VRB25G35KT -TSRA BKN100CB 
     BECMG 2405/2406 VRB06KT 9999 NSW FEW200 QNH2995INS 
     BECMG 2417/2418 18009KT 9999 FEW200 QNH2982INS TX37/2422Z TN22/2413Z
       
KLAS 232356Z 05006KT 10SM FEW100 FEW250 32/14 A2992 RMK SLPNO ACC W T03240136
KLAS 232320Z 2400/2424 08006KT P6SM SCT140 
     FM240200 18006KT P6SM SCT140 
     FM240400 21007KT P6SM VCSH BKN140 
     TEMPO 2404/2408 01015KT 
     FM241400 VRB06KT P6SM FEW140
       
KHII 240110Z AUTO 00000KT 10SM CLR 37/10 A2986 RMK AO2
KIFP 240115Z AUTO 19003KT 10SM CLR 37/11 A2986 RMK AO2
KIFP 232320Z 2400/2424 VRB06KT P6SM FEW120 
     FM241800 19008KT P6SM SKC